Time;durP1;ratioP1;P1;durP2;ratioP2;P2;SDS_P1;SDS_P2;PMS_P1;PMS_P2;Temp;Humidity;BMP_temperature;BMP_pressure;BME280_temperature;BME280_humidity;BME280_pressure;Samples;Min_cycle;Max_cycle;Signal;HPM_P1;HPM_P2
2022/02/06 00:01:18;;;;;;;3.75;3.45;;;2.30;95.00;;;;;;5069567;28;20203;-86
2022/02/06 00:03:46;;;;;;;4.60;3.15;;;1.70;97.50;;;;;;5069060;28;20192;-86
2022/02/06 00:06:13;;;;;;;3.60;2.60;;;2.40;95.00;;;;;;5068393;28;20669;-86
2022/02/06 00:08:40;;;;;;;2.55;2.35;;;2.30;94.70;;;;;;5068450;28;20223;-86
2022/02/06 00:11:07;;;;;;;3.00;2.70;;;2.40;94.80;;;;;;5068661;28;20211;-86
2022/02/06 00:13:34;;;;;;;2.50;2.17;;;1.70;97.30;;;;;;5067899;28;20705;-86
2022/02/06 00:16:01;;;;;;;3.05;2.13;;;2.20;96.80;;;;;;5068140;28;20207;-86
2022/02/06 00:18:28;;;;;;;3.53;1.90;;;2.10;97.50;;;;;;5068438;28;20196;-86
2022/02/06 00:21:00;;;;;;;2.13;1.80;;;2.50;98.30;;;;;;5062581;28;20202;-86
2022/02/06 00:23:29;;;;;;;4.05;2.47;;;3.20;95.60;;;;;;5068503;28;20199;-86
2022/02/06 00:26:02;;;;;;;2.38;2.15;;;3.70;95.70;;;;;;5066816;28;20202;-86
2022/02/06 00:28:41;;;;;;;5.07;2.33;;;2.30;95.00;;;;;;5068470;28;20223;-86
2022/02/06 00:31:17;;;;;;;6.10;2.25;;;2.80;95.30;;;;;;5068497;28;20217;-86
2022/02/06 00:34:03;;;;;;;3.95;2.17;;;2.30;94.90;;;;;;5062175;28;20663;-85
2022/02/06 00:39:17;;;;;;;2.83;2.13;;;2.30;95.10;;;;;;5067082;28;20675;-86
2022/02/06 00:41:44;;;;;;;4.70;2.03;;;2.30;95.20;;;;;;5068428;28;20192;-86
2022/02/06 00:44:10;;;;;;;2.75;1.80;;;2.30;95.50;;;;;;5068086;28;20199;-86
2022/02/06 00:46:40;;;;;;;1.88;1.77;;;3.80;96.00;;;;;;5068078;28;20623;-86
2022/02/06 00:49:14;;;;;;;2.10;1.90;;;4.30;96.30;;;;;;5067546;28;20329;-86
2022/02/06 00:51:51;;;;;;;4.68;1.85;;;2.40;95.00;;;;;;5068924;28;20229;-85
2022/02/06 00:54:18;;;;;;;2.85;2.17;;;2.40;95.20;;;;;;5063204;28;20199;-86
2022/02/06 00:56:45;;;;;;;3.97;2.45;;;2.40;95.30;;;;;;5068595;28;20227;-86
2022/02/06 00:59:12;;;;;;;2.17;2.03;;;2.50;95.30;;;;;;5068149;28;20234;-85
2022/02/06 01:01:41;;;;;;;2.47;1.85;;;2.40;97.10;;;;;;5067751;28;20248;-86
2022/02/06 01:04:09;;;;;;;3.65;1.90;;;2.80;95.40;;;;;;5068525;28;20196;-85
2022/02/06 01:06:36;;;;;;;2.55;2.00;;;2.50;98.30;;;;;;5071086;28;20206;-86
2022/02/06 01:09:06;;;;;;;9.25;1.92;;;2.60;94.90;;;;;;5067733;28;20221;-86
2022/02/06 01:11:37;;;;;;;2.42;1.95;;;3.60;95.50;;;;;;5068399;28;20207;-85
2022/02/06 01:14:13;;;;;;;4.63;1.63;;;2.80;97.80;;;;;;5067217;28;20207;-86
2022/02/06 01:16:45;;;;;;;3.22;1.88;;;2.60;94.80;;;;;;5068116;28;20199;-85
2022/02/06 01:19:19;;;;;;;3.80;1.50;;;;;;;;;;5068223;28;20217;-86
2022/02/06 01:21:53;;;;;;;2.13;1.77;;;2.60;94.80;;;;;;5067613;28;20199;-85
2022/02/06 01:24:28;;;;;;;5.38;2.10;;;2.80;98.10;;;;;;5067284;28;20206;-86
2022/02/06 01:27:05;;;;;;;2.20;1.50;;;2.80;94.70;;;;;;5062826;28;20211;-85
2022/02/06 01:29:39;;;;;;;2.47;1.42;;;2.80;94.70;;;;;;5068386;28;20235;-85
2022/02/06 01:32:12;;;;;;;1.80;1.55;;;2.80;94.70;;;;;;5068184;28;20231;-85
2022/02/06 01:34:44;;;;;;;3.70;2.20;;;2.80;94.60;;;;;;5067035;28;20245;-85
2022/02/06 01:37:21;;;;;;;1.70;1.60;;;2.80;94.70;;;;;;5068048;28;20286;-86
2022/02/06 01:39:59;;;;;;;4.72;2.00;;;2.70;94.70;;;;;;5067474;28;20195;-85
2022/02/06 01:42:29;;;;;;;1.75;1.60;;;3.30;94.90;;;;;;5068033;28;20293;-86
2022/02/06 01:45:11;;;;;;;4.90;1.90;;;2.90;98.00;;;;;;5066748;28;20199;-85
2022/02/06 02:01:39;;;;;;;2.83;1.90;;;3.00;94.50;;;;;;5063522;28;20215;-85
2022/02/06 02:04:12;;;;;;;2.50;1.60;;;2.90;94.60;;;;;;5066548;28;20742;-86
2022/02/06 02:16:05;;;;;;;2.90;1.85;;;2.90;94.60;;;;;;5067588;28;20677;-86
2022/02/06 02:19:00;;;;;;;2.13;1.95;;;2.90;94.70;;;;;;5050222;28;20210;-85
2022/02/06 02:24:33;;;;;;;5.63;2.20;;;2.90;94.80;;;;;;5067346;28;20222;-85
2022/02/06 02:27:09;;;;;;;3.42;1.90;;;2.80;97.70;;;;;;5070005;28;20203;-86
2022/02/06 02:30:20;;;;;;;3.05;1.98;;;3.40;97.90;;;;;;5065300;28;20225;-85
2022/02/06 02:33:22;;;;;;;2.53;1.85;;;3.00;94.50;;;;;;5056760;28;20195;-85
2022/02/06 02:46:57;;;;;;;2.50;1.50;;;2.90;94.80;;;;;;5072242;28;20195;-85
2022/02/06 02:49:29;;;;;;;1.38;1.25;;;2.90;94.70;;;;;;5070607;28;20238;-85
2022/02/06 02:52:02;;;;;;;2.45;1.88;;;2.80;97.90;;;;;;5070207;28;20282;-85
2022/02/06 02:54:33;;;;;;;1.98;1.85;;;2.90;94.80;;;;;;5060318;28;20245;-86
2022/02/06 02:57:08;;;;;;;3.83;2.03;;;2.90;94.70;;;;;;5067873;28;20235;-85
2022/02/06 02:59:49;;;;;;;3.00;1.65;;;2.90;94.70;;;;;;5070240;28;20252;-85
2022/02/06 03:02:16;;;;;;;4.75;1.83;;;2.80;94.90;;;;;;5068953;28;20614;-85
2022/02/06 03:04:48;;;;;;;5.65;1.77;;;2.90;94.80;;;;;;5069592;28;20191;-85
2022/02/06 03:07:15;;;;;;;3.28;2.28;;;3.20;94.90;;;;;;5069979;28;20661;-85
2022/02/06 03:09:45;;;;;;;3.45;1.65;;;3.80;95.40;;;;;;5069735;28;20211;-85
2022/02/06 03:12:15;;;;;;;4.13;1.52;;;2.90;94.80;;;;;;5070225;28;20195;-85
2022/02/06 03:14:46;;;;;;;3.88;2.03;;;2.90;94.80;;;;;;5068571;28;20184;-85
2022/02/06 03:17:22;;;;;;;4.88;1.85;;;2.90;94.80;;;;;;5062425;28;20741;-85
2022/02/06 03:19:54;;;;;;;2.22;1.38;;;3.40;95.00;;;;;;5069542;28;20203;-85
2022/02/06 03:22:31;;;;;;;3.00;1.65;;;3.00;94.70;;;;;;5069563;28;20544;-85
2022/02/06 03:25:06;;;;;;;7.10;1.60;;;3.00;94.70;;;;;;5068347;28;20195;-85
2022/02/06 03:27:33;;;;;;;5.35;1.35;;;2.90;94.80;;;;;;5069371;28;20199;-85
2022/02/06 03:30:00;;;;;;;2.08;1.10;;;3.10;94.60;;;;;;5064070;28;20224;-85
2022/02/06 03:32:27;;;;;;;7.50;1.80;;;3.00;94.80;;;;;;5068938;28;20230;-85
2022/02/06 03:34:54;;;;;;;1.67;1.20;;;3.00;94.70;;;;;;5069124;28;20244;-85
2022/02/06 03:37:21;;;;;;;1.02;1.00;;;3.40;95.00;;;;;;5068485;28;20195;-85
2022/02/06 03:39:51;;;;;;;1.30;1.20;;;3.00;98.00;;;;;;5067999;28;20992;-85
2022/02/06 03:42:22;;;;;;;6.03;1.88;;;3.10;94.90;;;;;;5069105;28;20585;-85
2022/02/06 03:44:52;;;;;;;9.10;2.20;;;3.10;94.70;;;;;;5068727;28;20199;-84
2022/02/06 03:47:22;;;;;;;1.92;1.20;;;4.10;95.10;;;;;;5059258;28;20210;-84
2022/02/06 03:49:55;;;;;;;2.00;1.63;;;3.00;94.60;;;;;;5069339;28;20314;-84
2022/02/06 03:52:26;;;;;;;3.25;1.80;;;3.10;97.50;;;;;;5049659;28;20232;-84
2022/02/06 03:54:53;;;;;;;1.95;1.20;;;3.00;94.70;;;;;;5051690;28;20199;-85
2022/02/06 03:57:21;;;;;;;8.30;1.70;;;3.10;94.70;;;;;;5054663;28;20199;-85
2022/02/06 03:59:48;;;;;;;5.05;1.55;;;3.80;95.10;;;;;;5056190;28;20207;-85
2022/02/06 04:02:15;;;;;;;5.28;1.13;;;3.20;94.70;;;;;;5068827;28;20253;-85
2022/02/06 04:04:42;;;;;;;3.65;1.50;;;3.30;98.70;;;;;;5067532;28;20626;-85
2022/02/06 04:07:12;;;;;;;2.20;1.20;;;3.10;94.90;;;;;;5057353;28;20226;-85
2022/02/06 04:09:45;;;;;;;6.07;1.80;;;3.10;94.80;;;;;;5064926;28;20219;-85
2022/02/06 04:12:14;;;;;;;2.15;1.30;;;3.20;95.10;;;;;;5059091;28;20215;-85
2022/02/06 04:14:53;;;;;;;1.50;1.40;;;3.60;95.00;;;;;;5048375;28;20196;-85
2022/02/06 04:17:23;;;;;;;3.08;1.60;;;3.20;94.90;;;;;;5048443;28;20199;-85
2022/02/06 04:19:51;;;;;;;3.45;1.77;;;3.20;94.90;;;;;;5054330;28;20203;-85
2022/02/06 04:22:18;;;;;;;1.92;1.20;;;3.50;98.60;;;;;;5061476;28;20634;-86
2022/02/06 04:24:45;;;;;;;1.83;1.23;;;3.20;94.90;;;;;;5064090;28;20215;-85
2022/02/06 04:27:12;;;;;;;2.25;1.77;;;3.20;94.90;;;;;;5057308;28;20254;-85
2022/02/06 04:29:39;;;;;;;2.55;1.58;;;3.20;94.70;;;;;;5048610;28;20247;-85
2022/02/06 04:32:09;;;;;;;1.90;1.20;;;4.00;95.00;;;;;;5067163;28;20268;-85
2022/02/06 04:34:37;;;;;;;3.65;1.55;;;3.20;94.50;;;;;;5068308;28;20595;-85
2022/02/06 04:37:10;;;;;;;2.90;2.00;;;3.50;94.90;;;;;;5068621;28;20660;-85
2022/02/06 04:40:02;;;;;;;4.00;1.70;;;3.40;97.50;;;;;;5068106;28;20665;-85
2022/02/06 04:42:51;;;;;;;3.08;1.75;;;3.30;94.30;;;;;;5068272;28;20998;-85
2022/02/06 04:51:41;;;;;;;2.67;2.15;;;3.30;94.30;;;;;;5067888;28;20730;-84
2022/02/06 05:16:26;;;;;;;4.07;1.52;;;3.60;94.10;;;;;;5067158;28;20636;-85
2022/02/06 05:27:47;;;;;;;1.58;1.35;;;4.00;94.50;;;;;;5085627;27;20741;-85
2022/02/06 05:30:18;;;;;;;3.15;1.70;;;3.60;94.00;;;;;;5084744;28;20195;-85
2022/02/06 05:32:58;;;;;;;2.17;1.52;;;5.20;94.80;;;;;;5085776;28;20199;-84
2022/02/06 05:35:26;;;;;;;3.88;1.98;;;4.10;94.20;;;;;;5075587;28;20209;-85
2022/02/06 05:37:53;;;;;;;2.10;1.80;;;3.70;93.80;;;;;;5084631;28;20190;-84
2022/02/06 05:40:20;;;;;;;2.15;1.60;;;3.70;94.10;;;;;;5085331;28;20247;-85
2022/02/06 05:42:48;;;;;;;2.05;1.77;;;3.30;97.00;;;;;;5084484;28;20205;-83
2022/02/06 05:45:18;;;;;;;3.42;1.80;;;3.70;93.90;;;;;;5084946;28;20198;-85
2022/02/06 05:47:45;;;;;;;2.47;1.35;;;3.70;93.90;;;;;;5085721;28;20581;-84
2022/02/06 05:50:14;;;;;;;1.80;1.60;;;3.80;94.00;;;;;;5084849;28;20218;-86
2022/02/06 05:52:41;;;;;;;13.20;1.60;;;3.60;94.00;;;;;;5084567;28;20198;-85
2022/02/06 05:55:10;;;;;;;3.60;1.50;;;3.60;93.70;;;;;;5073647;28;20229;-85
2022/02/06 05:57:37;;;;;;;2.55;1.20;;;3.70;94.00;;;;;;5084789;28;20547;-85
2022/02/06 06:00:07;;;;;;;1.73;1.20;;;3.70;93.90;;;;;;5085019;28;20241;-85
2022/02/06 06:02:34;;;;;;;4.53;1.60;;;3.80;96.80;;;;;;5085086;28;20203;-85
2022/02/06 06:05:01;;;;;;;4.45;1.52;;;3.70;94.00;;;;;;5083666;28;20736;-85
2022/02/06 06:07:28;;;;;;;2.03;1.30;;;3.70;94.00;;;;;;5084612;28;20242;-85
2022/02/06 06:09:55;;;;;;;3.63;1.70;;;3.80;97.00;;;;;;5076752;28;20299;-85
2022/02/06 06:12:22;;;;;;;1.38;1.27;;;3.70;94.20;;;;;;5084402;28;20183;-85
2022/02/06 06:14:49;;;;;;;3.70;1.67;;;3.80;94.10;;;;;;5084506;28;20598;-85
2022/02/06 06:17:18;;;;;;;2.22;1.80;;;3.80;94.00;;;;;;5084058;28;20206;-85
2022/02/06 06:19:48;;;;;;;1.25;1.00;;;3.80;94.40;;;;;;5084028;28;20198;-84
2022/02/06 06:22:18;;;;;;;4.13;1.40;;;3.80;94.00;;;;;;5083777;28;20202;-85
2022/02/06 06:24:51;;;;;;;1.95;1.58;;;3.60;96.90;;;;;;5083431;28;20191;-85
2022/02/06 06:27:17;;;;;;;1.45;1.35;;;3.80;94.20;;;;;;5084363;28;20226;-85
2022/02/06 06:29:44;;;;;;;5.03;1.40;;;3.70;94.20;;;;;;5084503;28;20284;-85
2022/02/06 06:32:11;;;;;;;3.50;1.52;;;3.70;94.50;;;;;;5083953;28;20187;-85
2022/02/06 06:34:40;;;;;;;2.63;1.63;;;3.80;94.30;;;;;;5083079;28;20736;-84
2022/02/06 06:37:06;;;;;;;1.70;1.60;;;3.90;94.10;;;;;;5079621;28;20739;-85
2022/02/06 06:39:38;;;;;;;1.92;1.40;;;3.80;97.10;;;;;;5068541;28;20210;-84
2022/02/06 06:42:07;;;;;;;2.80;1.60;;;3.90;94.30;;;;;;5056258;28;20236;-84
2022/02/06 06:44:34;;;;;;;3.40;1.40;;;3.90;94.00;;;;;;5069090;28;20199;-84
2022/02/06 06:47:01;;;;;;;3.58;2.50;;;3.90;94.10;;;;;;5068328;28;20614;-84
2022/02/06 06:49:28;;;;;;;4.32;1.77;;;4.50;98.00;;;;;;5069741;28;20661;-85
2022/02/06 06:51:56;;;;;;;4.53;1.48;;;3.80;94.30;;;;;;5069745;28;20222;-84
2022/02/06 06:54:34;;;;;;;5.25;2.15;;;;;;;;;;5070291;28;20233;-84
2022/02/06 06:57:12;;;;;;;2.17;1.20;;;3.90;94.00;;;;;;5070409;28;20590;-84
2022/02/06 07:00:08;;;;;;;3.72;1.58;;;4.10;94.50;;;;;;5070112;28;20222;-85
2022/02/06 07:02:34;;;;;;;5.68;1.83;;;4.00;94.20;;;;;;5069928;28;20214;-85
2022/02/06 07:05:04;;;;;;;3.13;1.80;;;4.00;94.00;;;;;;5062281;28;20265;-85
2022/02/06 07:07:33;;;;;;;2.80;1.55;;;4.00;94.10;;;;;;5070886;28;20227;-85
2022/02/06 07:10:02;;;;;;;4.57;1.95;;;4.00;97.40;;;;;;5070472;28;20191;-85
2022/02/06 07:12:29;;;;;;;3.30;1.30;;;4.20;97.00;;;;;;5069887;28;20207;-85
2022/02/06 07:14:56;;;;;;;2.03;1.63;;;3.90;97.00;;;;;;5069642;28;20207;-85
2022/02/06 07:17:23;;;;;;;2.92;1.85;;;4.70;94.50;;;;;;5070333;28;20253;-85
2022/02/06 07:19:50;;;;;;;3.53;1.77;;;4.10;93.90;;;;;;5070433;28;20572;-86
2022/02/06 07:22:19;;;;;;;1.67;1.40;;;4.20;93.80;;;;;;5069650;28;20648;-85
2022/02/06 07:24:52;;;;;;;2.00;1.55;;;4.20;93.80;;;;;;5068958;28;20210;-86
2022/02/06 07:27:23;;;;;;;2.55;1.48;;;4.20;93.90;;;;;;5069664;28;20257;-85
2022/02/06 07:29:50;;;;;;;5.47;1.30;;;4.20;94.00;;;;;;5070377;28;20202;-85
2022/02/06 07:32:17;;;;;;;3.58;1.52;;;4.30;93.70;;;;;;5069787;28;20237;-84
2022/02/06 07:34:45;;;;;;;1.67;1.35;;;4.20;93.70;;;;;;5069847;28;20218;-85
2022/02/06 07:37:12;;;;;;;2.97;1.65;;;4.40;96.00;;;;;;5069695;28;20245;-85
2022/02/06 07:39:39;;;;;;;2.38;1.40;;;4.20;93.90;;;;;;5070716;28;20229;-85
2022/02/06 07:42:09;;;;;;;4.72;1.65;;;4.20;97.40;;;;;;5068436;28;20196;-86
2022/02/06 07:44:37;;;;;;;3.22;1.10;;;4.20;93.90;;;;;;5069964;28;20219;-85
2022/02/06 07:47:13;;;;;;;1.80;1.55;;;5.00;94.30;;;;;;5069407;28;20210;-85
2022/02/06 07:49:42;;;;;;;2.10;1.30;;;4.50;97.20;;;;;;5068299;28;20225;-85
2022/02/06 07:52:09;;;;;;;3.03;1.92;;;4.30;94.90;;;;;;5068978;28;20830;-86
2022/02/06 07:54:36;;;;;;;5.43;2.00;;;4.30;97.10;;;;;;5065158;28;20206;-86
2022/02/06 07:57:04;;;;;;;1.42;1.33;;;4.30;96.40;;;;;;5066903;28;20199;-86
2022/02/06 07:59:33;;;;;;;8.45;1.90;;;4.40;93.50;;;;;;5068384;28;20807;-87
2022/02/06 08:02:00;;;;;;;6.68;2.65;;;4.50;93.80;;;;;;5067836;28;20204;-87
2022/02/06 08:04:28;;;;;;;5.65;2.83;;;4.30;94.00;;;;;;5066061;28;20374;-84
2022/02/06 08:06:55;;;;;;;1.95;1.20;;;4.50;94.00;;;;;;5065647;28;20238;-87
2022/02/06 08:09:36;;;;;;;5.45;2.20;;;4.50;93.80;;;;;;5068607;28;20207;-85
2022/02/06 08:12:05;;;;;;;3.25;1.40;;;4.50;94.20;;;;;;5056234;28;20696;-86
2022/02/06 08:14:54;;;;;;;4.10;1.88;;;4.60;94.10;;;;;;5068722;28;20187;-87
2022/02/06 08:17:23;;;;;;;1.38;1.15;;;4.60;93.70;;;;;;5069413;28;20692;-86
2022/02/06 08:19:51;;;;;;;2.20;1.50;;;4.70;93.60;;;;;;5068965;28;20251;-85
2022/02/06 08:22:18;;;;;;;2.78;1.40;;;4.70;96.60;;;;;;5067741;28;20650;-86
2022/02/06 08:24:45;;;;;;;1.63;1.50;;;6.10;94.10;;;;;;5063339;28;20270;-87
2022/02/06 08:27:12;;;;;;;1.17;1.08;;;4.70;93.20;;;;;;5068166;28;20231;-85
2022/02/06 08:29:43;;;;;;;2.45;1.80;;;4.80;94.90;;;;;;5068672;28;20192;-86
2022/02/06 08:32:10;;;;;;;2.72;1.65;;;4.80;93.50;;;;;;5068491;28;20604;-86
2022/02/06 08:34:37;;;;;;;2.95;1.52;;;4.80;93.30;;;;;;5068204;28;20195;-86
2022/02/06 08:37:07;;;;;;;7.90;1.70;;;4.80;93.10;;;;;;5069111;28;20195;-86
2022/02/06 08:39:35;;;;;;;2.28;2.10;;;4.90;93.60;;;;;;5067784;28;20197;-85
2022/02/06 08:42:06;;;;;;;3.50;1.20;;;4.90;93.10;;;;;;5068587;28;20290;-85
2022/02/06 08:44:33;;;;;;;2.63;1.50;;;5.00;93.10;;;;;;5068293;28;20649;-85
2022/02/06 08:47:01;;;;;;;1.95;1.77;;;5.10;93.10;;;;;;5068327;28;20306;-85
2022/02/06 08:49:28;;;;;;;4.27;1.80;;;5.20;92.90;;;;;;5068391;28;20795;-85
2022/02/06 08:51:55;;;;;;;2.65;1.30;;;5.50;92.50;;;;;;5067506;28;20766;-86
2022/02/06 08:54:27;;;;;;;2.17;1.20;;;5.70;95.30;;;;;;5066618;28;20199;-87
2022/02/06 08:56:59;;;;;;;3.38;1.40;;;5.80;92.40;;;;;;5067439;28;20272;-83
2022/02/06 08:59:26;;;;;;;3.35;1.40;;;5.90;92.20;;;;;;5067173;28;20210;-85
2022/02/06 09:01:55;;;;;;;1.50;1.38;;;5.90;92.10;;;;;;5067311;28;20226;-85
2022/02/06 09:04:23;;;;;;;3.35;1.48;;;5.90;91.90;;;;;;5066740;28;20669;-85
2022/02/06 09:06:50;;;;;;;1.30;1.20;;;6.00;94.30;;;;;;5067247;28;20703;-85
2022/02/06 09:09:17;;;;;;;0.88;0.77;;;6.00;91.80;;;;;;5067845;28;20199;-84
2022/02/06 09:11:45;;;;;;;2.15;1.27;;;6.00;91.70;;;;;;5067921;28;20199;-85
2022/02/06 09:14:13;;;;;;;5.00;1.65;;;6.00;91.60;;;;;;5067232;28;20200;-85
2022/02/06 09:16:40;;;;;;;4.55;1.70;;;5.90;91.40;;;;;;5068713;28;20211;-84
2022/02/06 09:19:07;;;;;;;3.65;1.70;;;5.90;91.60;;;;;;5068514;28;20307;-85
2022/02/06 09:21:36;;;;;;;2.45;1.30;;;5.80;91.70;;;;;;5068317;28;20237;-85
2022/02/06 09:24:03;;;;;;;1.83;1.02;;;5.90;91.40;;;;;;5068127;28;20207;-85
2022/02/06 09:26:29;;;;;;;1.60;1.13;;;5.80;94.40;;;;;;5068328;28;20265;-85
2022/02/06 09:28:56;;;;;;;7.90;1.58;;;5.80;91.60;;;;;;5068405;28;20252;-85
2022/02/06 09:31:26;;;;;;;2.85;1.55;;;5.80;92.20;;;;;;5068718;28;20195;-85
2022/02/06 09:36:19;;;;;;;5.30;1.75;;;5.90;91.60;;;;;;5068330;28;20668;-85
2022/02/06 09:38:47;;;;;;;2.20;1.35;;;6.00;91.90;;;;;;5068546;28;20282;-85
2022/02/06 09:41:14;;;;;;;4.97;1.25;;;6.00;92.10;;;;;;5068411;28;20219;-84
2022/02/06 09:43:43;;;;;;;1.30;1.20;;;5.90;91.90;;;;;;5068371;28;20252;-85
2022/02/06 09:46:12;;;;;;;3.72;1.40;;;5.90;91.90;;;;;;5067728;28;20219;-85
2022/02/06 09:48:40;;;;;;;6.25;1.10;;;6.10;95.50;;;;;;5067821;28;21253;-85
2022/02/06 09:51:09;;;;;;;2.45;1.10;;;6.00;92.10;;;;;;5068176;28;20242;-85
2022/02/06 09:53:37;;;;;;;3.15;1.20;;;6.00;92.10;;;;;;5067916;28;20199;-85
2022/02/06 09:56:09;;;;;;;1.45;1.35;;;6.10;92.10;;;;;;5067091;28;20196;-85
2022/02/06 09:58:58;;;;;;;8.98;2.20;;;6.10;91.90;;;;;;5067813;28;20664;-85
2022/02/06 10:01:27;;;;;;;1.85;1.15;;;6.20;92.50;;;;;;5067869;28;20279;-85
2022/02/06 10:04:01;;;;;;;1.80;1.40;;;6.20;92.40;;;;;;5047849;28;20287;-86
2022/02/06 10:06:34;;;;;;;3.10;1.55;;;6.10;92.30;;;;;;5047705;28;20314;-85
2022/02/06 10:09:04;;;;;;;1.95;1.40;;;6.20;92.60;;;;;;5047821;28;20214;-86
2022/02/06 10:11:35;;;;;;;2.72;1.20;;;7.10;93.10;;;;;;5047331;28;20662;-86
2022/02/06 10:14:02;;;;;;;1.70;1.27;;;6.40;92.50;;;;;;5051109;28;20563;-86
2022/02/06 10:16:30;;;;;;;1.95;1.30;;;6.50;92.30;;;;;;5051688;28;20294;-85
2022/02/06 10:18:57;;;;;;;3.63;1.75;;;6.50;92.20;;;;;;5051823;28;20253;-85
2022/02/06 10:21:30;;;;;;;2.72;1.52;;;6.60;91.70;;;;;;5051604;28;20646;-84
2022/02/06 10:24:04;;;;;;;1.95;0.98;;;6.40;94.60;;;;;;5050501;28;20254;-86
2022/02/06 10:26:39;;;;;;;2.47;1.25;;;6.60;92.00;;;;;;5051673;28;20215;-85
2022/02/06 10:29:26;;;;;;;5.85;2.15;;;6.60;91.90;;;;;;5051616;28;20211;-86
2022/02/06 10:31:55;;;;;;;3.92;1.70;;;6.50;92.10;;;;;;5051621;28;20294;-86
2022/02/06 10:34:23;;;;;;;3.28;1.20;;;6.60;91.90;;;;;;5050246;28;20254;-86
2022/02/06 10:36:51;;;;;;;1.35;1.05;;;6.50;91.90;;;;;;5051229;28;20606;-86
2022/02/06 10:39:23;;;;;;;1.75;0.90;;;6.60;95.20;;;;;;5051367;28;20219;-86
2022/02/06 10:41:52;;;;;;;1.55;1.25;;;6.60;92.20;;;;;;5070413;28;20203;-86
2022/02/06 10:44:20;;;;;;;4.32;1.67;;;6.50;92.50;;;;;;5070633;28;20249;-85
2022/02/06 10:46:53;;;;;;;2.60;1.20;;;6.70;91.90;;;;;;5070641;28;20219;-86
2022/02/06 10:49:21;;;;;;;5.15;0.95;;;6.60;92.10;;;;;;5071112;28;20199;-86
2022/02/06 10:51:51;;;;;;;4.63;1.48;;;6.70;92.00;;;;;;5071249;28;20206;-86
2022/02/06 10:54:25;;;;;;;1.13;1.02;;;6.70;92.40;;;;;;5070677;28;20211;-86
2022/02/06 10:57:07;;;;;;;2.05;1.35;;;6.60;92.10;;;;;;5070604;28;20199;-86
2022/02/06 10:59:48;;;;;;;3.05;1.10;;;6.50;91.80;;;;;;5071465;28;20203;-86
2022/02/06 11:02:20;;;;;;;3.00;1.77;;;6.50;92.30;;;;;;5064926;28;20191;-85
2022/02/06 11:05:08;;;;;;;5.85;1.30;;;6.70;92.30;;;;;;5051576;28;20254;-86
2022/02/06 11:07:35;;;;;;;2.40;1.30;;;7.00;95.60;;;;;;5051262;28;20223;-86
2022/02/06 11:10:07;;;;;;;4.32;2.00;;;6.80;95.00;;;;;;5050990;28;20236;-86
2022/02/06 11:12:35;;;;;;;3.75;1.85;;;6.90;92.00;;;;;;5051694;28;20227;-86
2022/02/06 11:15:05;;;;;;;1.10;1.00;;;7.00;91.90;;;;;;5051380;28;20221;-86
2022/02/06 11:17:36;;;;;;;2.33;1.27;;;7.10;92.00;;;;;;5051090;28;20301;-86
2022/02/06 11:20:07;;;;;;;1.25;0.80;;;7.10;92.00;;;;;;5050495;28;20215;-86
2022/02/06 11:22:35;;;;;;;2.08;1.45;;;7.10;91.90;;;;;;5050820;28;20203;-86
2022/02/06 11:25:05;;;;;;;0.90;0.90;;;8.60;92.60;;;;;;5050217;28;20254;-84
2022/02/06 11:27:33;;;;;;;3.10;0.98;;;7.10;91.70;;;;;;5050363;28;20243;-86
2022/02/06 11:30:02;;;;;;;2.28;2.08;;;7.10;91.70;;;;;;5050156;28;20212;-86
2022/02/06 11:32:29;;;;;;;2.17;1.10;;;7.10;91.70;;;;;;5050118;28;20606;-85
2022/02/06 11:34:58;;;;;;;7.10;4.40;;;6.90;91.50;;;;;;5049585;28;20208;-87
2022/02/06 11:43:51;;;;;;;2.25;1.05;;;7.00;91.70;;;;;;5070548;28;20203;-86
2022/02/06 11:46:25;;;;;;;3.67;2.00;;;7.10;91.70;;;;;;5069976;28;20682;-86
2022/02/06 11:48:58;;;;;;;1.60;1.33;;;7.10;91.90;;;;;;5070202;28;20745;-87
2022/02/06 11:51:25;;;;;;;3.10;1.05;;;7.20;92.70;;;;;;5070478;28;20204;-87
2022/02/06 11:53:53;;;;;;;1.70;0.98;;;7.00;92.00;;;;;;5070405;28;20230;-86
2022/02/06 11:56:34;;;;;;;2.30;0.80;;;7.10;92.80;;;;;;5068884;28;20286;-86
2022/02/06 11:59:07;;;;;;;2.97;1.10;;;7.00;92.40;;;;;;5070198;28;20226;-86
2022/02/06 12:01:36;;;;;;;1.80;1.23;;;7.00;92.40;;;;;;5068050;28;20187;-86
2022/02/06 12:04:07;;;;;;;1.75;0.98;;;7.10;93.00;;;;;;5048790;28;20196;-87
2022/02/06 12:06:54;;;;;;;1.55;1.20;;;7.00;92.90;;;;;;5049622;28;20241;-86
2022/02/06 12:09:24;;;;;;;1.52;1.00;;;8.50;94.00;;;;;;5049708;28;20227;-85
2022/02/06 12:12:21;;;;;;;2.20;1.20;;;6.90;92.90;;;;;;5049620;28;20260;-87
2022/02/06 12:15:09;;;;;;;0.82;0.82;;;6.90;93.40;;;;;;5049100;28;20208;-85
2022/02/06 12:18:13;;;;;;;1.73;0.98;;;7.00;93.30;;;;;;5049255;28;20207;-86
2022/02/06 12:20:48;;;;;;;1.08;0.70;;;7.00;93.20;;;;;;5048954;28;20610;-86
2022/02/06 12:23:35;;;;;;;1.55;1.08;;;7.00;93.40;;;;;;5049198;28;20195;-85
2022/02/06 12:26:02;;;;;;;1.85;0.80;;;7.00;92.80;;;;;;5048726;28;20243;-86
2022/02/06 12:28:40;;;;;;;0.75;0.75;;;6.90;92.80;;;;;;5049010;28;20806;-86
2022/02/06 12:31:27;;;;;;;1.48;0.90;;;6.90;92.70;;;;;;5048610;28;20612;-86
2022/02/06 12:33:59;;;;;;;0.82;0.82;;;7.00;93.10;;;;;;5049021;28;20253;-86
2022/02/06 12:39:37;;;;;;;1.25;1.15;;;7.00;92.60;;;;;;5013204;28;20222;-85
2022/02/06 12:42:09;;;;;;;1.15;1.02;;;6.90;92.40;;;;;;5069146;28;20272;-86
2022/02/06 12:44:36;;;;;;;2.70;0.93;;;7.00;92.70;;;;;;5068729;28;20203;-86
2022/02/06 12:47:07;;;;;;;1.60;1.33;;;7.10;92.70;;;;;;5068752;28;20814;-87
2022/02/06 12:49:38;;;;;;;3.42;1.08;;;7.30;92.30;;;;;;5068936;28;20592;-86
2022/02/06 12:52:06;;;;;;;2.03;0.82;;;7.30;92.20;;;;;;5069275;28;20226;-86
2022/02/06 12:54:35;;;;;;;1.25;0.73;;;7.30;95.00;;;;;;5069683;28;20204;-87
2022/02/06 12:57:02;;;;;;;2.45;0.95;;;7.20;92.30;;;;;;5068924;28;20253;-87
2022/02/06 12:59:32;;;;;;;1.30;0.85;;;7.30;92.30;;;;;;5069791;28;20195;-88
2022/02/06 13:02:00;;;;;;;5.53;0.90;;;7.30;92.60;;;;;;5065144;28;20628;-87
2022/02/06 13:04:30;;;;;;;0.80;0.70;;;7.10;95.10;;;;;;5048730;28;20660;-86
2022/02/06 13:07:03;;;;;;;2.00;0.90;;;7.20;92.80;;;;;;5049553;28;20203;-87
2022/02/06 13:09:36;;;;;;;0.60;0.60;;;7.20;93.70;;;;;;5049114;28;20227;-86
2022/02/06 13:12:09;;;;;;;1.40;0.80;;;7.30;96.50;;;;;;5049059;28;20254;-87
2022/02/06 13:17:40;;;;;;;2.03;1.33;;;7.00;97.20;;;;;;5042861;28;20207;-85
2022/02/06 13:20:22;;;;;;;1.25;1.15;;;7.00;94.20;;;;;;5048603;28;20310;-85
2022/02/06 13:22:57;;;;;;;1.25;0.93;;;7.10;94.50;;;;;;5048361;28;20688;-85
2022/02/06 13:25:40;;;;;;;1.05;0.98;;;7.10;94.30;;;;;;5048139;28;20281;-84
2022/02/06 13:31:04;;;;;;;2.28;0.70;;;7.00;94.40;;;;;;5048191;28;20216;-86
2022/02/06 13:33:42;;;;;;;2.25;0.80;;;6.80;94.60;;;;;;5048257;28;20264;-85
2022/02/06 13:36:26;;;;;;;1.00;0.50;;;6.80;95.20;;;;;;5048341;28;20208;-85
2022/02/06 13:38:57;;;;;;;3.05;1.08;;;6.60;96.20;;;;;;5050081;28;20247;-84
2022/02/06 13:41:27;;;;;;;1.38;1.00;;;6.70;95.50;;;;;;5042943;28;20235;-84
2022/02/06 13:43:57;;;;;;;0.80;0.80;;;6.70;96.20;;;;;;5046990;28;20294;-84
2022/02/06 13:46:27;;;;;;;1.80;0.95;;;6.60;96.20;;;;;;5043179;28;20658;-84
2022/02/06 13:48:54;;;;;;;0.70;0.70;;;6.60;96.20;;;;;;5050325;28;20576;-84
2022/02/06 13:51:25;;;;;;;0.85;0.65;;;6.50;96.50;;;;;;5051659;28;20261;-84
2022/02/06 13:53:59;;;;;;;0.88;0.82;;;6.50;99.00;;;;;;5050413;28;20614;-84
2022/02/06 13:56:28;;;;;;;12.23;1.02;;;6.50;97.80;;;;;;5051433;28;20574;-85
2022/02/06 13:59:01;;;;;;;0.60;0.60;;;6.40;97.90;;;;;;5051411;28;20212;-85
2022/02/06 14:01:39;;;;;;;0.50;0.50;;;6.40;97.80;;;;;;5054970;28;20195;-83
2022/02/06 14:04:07;;;;;;;0.73;0.73;;;6.20;97.90;;;;;;5068692;28;20274;-84
2022/02/06 14:06:39;;;;;;;0.80;0.80;;;6.20;98.90;;;;;;5056369;28;20575;-84
2022/02/06 14:09:17;;;;;;;0.70;0.70;;;6.20;99.00;;;;;;5052537;28;20212;-83
2022/02/06 14:12:01;;;;;;;0.55;0.55;;;6.00;99.90;;;;;;5054304;28;20558;-82
2022/02/06 14:14:30;;;;;;;1.00;0.90;;;5.90;99.70;;;;;;5051438;28;20597;-84
2022/02/06 14:16:59;;;;;;;1.08;0.95;;;5.80;99.90;;;;;;5063231;28;20188;-86
2022/02/06 14:19:37;;;;;;;0.70;0.70;;;5.70;99.90;;;;;;5060051;28;20643;-87
2022/02/06 14:22:05;;;;;;;1.30;1.20;;;5.60;99.90;;;;;;5066012;28;20191;-87
2022/02/06 14:24:48;;;;;;;0.93;0.80;;;5.70;99.90;;;;;;5063070;28;20192;-86
2022/02/06 14:27:28;;;;;;;0.65;0.65;;;5.50;99.90;;;;;;5057202;28;20199;-87
2022/02/06 14:30:00;;;;;;;5.22;0.90;;;5.50;99.90;;;;;;5071175;28;20333;-87
2022/02/06 14:32:27;;;;;;;2.50;1.23;;;6.30;99.90;;;;;;5053013;28;20188;-86
2022/02/06 14:34:59;;;;;;;1.60;1.10;;;5.50;99.90;;;;;;5045313;28;20683;-85
2022/02/06 14:37:28;;;;;;;1.20;0.73;;;;;;;;;;5061279;28;20230;-85
2022/02/06 14:40:08;;;;;;;0.60;0.60;;;5.40;99.90;;;;;;5062708;28;20188;-85
2022/02/06 14:42:36;;;;;;;1.00;0.70;;;5.30;99.90;;;;;;5053817;28;20196;-85
2022/02/06 14:45:11;;;;;;;2.25;0.63;;;5.20;99.90;;;;;;5056059;28;20199;-85
2022/02/06 14:47:38;;;;;;;1.83;0.80;;;5.20;99.90;;;;;;5062003;28;20600;-85
2022/02/06 14:50:13;;;;;;;0.70;0.70;;;5.10;99.90;;;;;;5050666;28;20286;-84
2022/02/06 14:52:40;;;;;;;0.60;0.60;;;5.20;99.90;;;;;;5050595;28;20210;-85
2022/02/06 14:55:09;;;;;;;0.50;0.50;;;5.90;99.90;;;;;;5064625;28;20227;-86